Time;durP1;ratioP1;P1;durP2;ratioP2;P2;SDS_P1;SDS_P2;PMS_P1;PMS_P2;Temp;Humidity;BMP_temperature;BMP_pressure;BME280_temperature;BME280_humidity;BME280_pressure;Samples;Min_cycle;Max_cycle;Signal;HPM_P1;HPM_P2
2023/06/22 00:01:20;;;;;;;;;28.75;27.00;27.90;53.20;;;;;;111171;1241;54662;-65
2023/06/22 00:03:48;;;;;;;;;26.50;26.25;27.90;53.20;;;;;;111177;1241;44428;-61
2023/06/22 00:06:15;;;;;;;;;28.50;27.50;27.90;53.30;;;;;;111207;1244;50338;-60
2023/06/22 00:08:43;;;;;;;;;29.50;29.00;27.90;53.50;;;;;;111193;1240;49308;-62
2023/06/22 00:11:10;;;;;;;;;30.00;29.00;27.90;52.80;;;;;;111138;1244;54015;-62
2023/06/22 00:13:38;;;;;;;;;29.25;28.00;27.90;53.30;;;;;;111106;1240;44914;-62
2023/06/22 00:16:06;;;;;;;;;27.50;26.00;27.90;53.50;;;;;;111277;1243;49591;-60
2023/06/22 00:18:33;;;;;;;;;27.25;26.75;27.90;53.30;;;;;;111137;1243;50850;-62
2023/06/22 00:21:00;;;;;;;;;31.00;28.75;27.90;53.20;;;;;;111262;1239;54350;-61
2023/06/22 00:23:28;;;;;;;;;27.00;26.00;27.90;53.30;;;;;;111265;1241;45103;-62
2023/06/22 00:25:55;;;;;;;;;29.50;26.00;27.90;53.50;;;;;;111246;1244;49412;-62
2023/06/22 00:28:22;;;;;;;;;27.33;25.33;27.90;53.30;;;;;;111179;1240;49493;-62
2023/06/22 00:30:49;;;;;;;;;30.25;28.25;27.90;53.50;;;;;;111194;1244;54555;-62
2023/06/22 00:33:16;;;;;;;;;29.25;28.25;27.90;53.50;;;;;;111322;1240;44338;-62
2023/06/22 00:35:43;;;;;;;;;28.00;26.33;27.90;53.40;;;;;;111253;1243;50244;-63
2023/06/22 00:38:11;;;;;;;;;26.75;26.00;27.80;53.30;;;;;;111232;1239;49104;-64
2023/06/22 00:40:39;;;;;;;;;27.67;27.00;27.80;53.30;;;;;;111218;1239;54146;-61
2023/06/22 00:43:06;;;;;;;;;28.00;27.00;27.90;53.40;;;;;;111303;1244;44677;-62
2023/06/22 00:45:33;;;;;;;;;28.00;25.67;27.80;53.50;;;;;;111325;1239;49941;-61
2023/06/22 00:48:01;;;;;;;;;29.00;27.67;27.80;53.40;;;;;;111396;1240;49651;-65
2023/06/22 00:50:33;;;;;;;;;25.75;24.00;27.80;53.40;;;;;;111280;1244;53745;-64
2023/06/22 00:53:08;;;;;;;;;32.00;29.75;27.80;53.40;;;;;;111280;1243;44547;-61
2023/06/22 00:55:39;;;;;;;;;28.75;26.75;27.80;53.50;;;;;;111279;1240;49542;-60
2023/06/22 00:58:10;;;;;;;;;30.00;29.25;27.80;53.90;;;;;;111303;1240;49831;-62
2023/06/22 01:00:38;;;;;;;;;31.50;29.00;27.80;53.40;;;;;;111157;1245;54031;-62
2023/06/22 01:03:08;;;;;;;;;30.00;28.00;27.80;53.40;;;;;;111209;1240;44434;-64
2023/06/22 01:05:37;;;;;;;;;29.00;28.00;27.80;53.60;;;;;;111334;1244;49066;-62
2023/06/22 01:08:16;;;;;;;;;30.25;29.00;27.80;53.40;;;;;;111307;1238;49328;-61
2023/06/22 01:11:01;;;;;;;;;27.50;26.75;27.80;53.40;;;;;;111275;1243;53569;-60
2023/06/22 01:13:50;;;;;;;;;27.75;27.50;27.80;53.60;;;;;;111199;1243;44633;-62
2023/06/22 01:16:21;;;;;;;;;29.50;27.50;27.80;53.60;;;;;;111347;1240;50258;-60
2023/06/22 01:18:51;;;;;;;;;31.00;30.00;27.80;53.50;;;;;;111233;1240;50357;-61
2023/06/22 01:21:21;;;;;;;;;29.00;27.67;27.80;53.50;;;;;;111358;1244;53318;-61
2023/06/22 01:23:50;;;;;;;;;27.00;25.25;27.80;53.70;;;;;;111274;1240;44647;-63
2023/06/22 01:26:39;;;;;;;;;29.50;28.00;27.80;53.60;;;;;;111232;1241;49762;-61
2023/06/22 01:29:08;;;;;;;;;26.00;26.00;27.70;54.00;;;;;;111201;1243;49058;-61
2023/06/22 01:31:35;;;;;;;;;25.67;25.00;27.80;53.60;;;;;;111339;1241;54145;-60
2023/06/22 01:34:05;;;;;;;;;28.50;27.00;27.70;53.50;;;;;;111225;1240;44259;-64
2023/06/22 01:36:33;;;;;;;;;27.75;26.00;27.70;53.60;;;;;;111222;1239;49823;-62
2023/06/22 01:39:01;;;;;;;;;26.25;25.25;27.70;53.60;;;;;;111223;1238;49121;-61
2023/06/22 01:41:30;;;;;;;;;27.25;26.50;27.70;53.80;;;;;;111259;1243;54486;-61
2023/06/22 01:43:57;;;;;;;;;29.33;27.33;27.70;53.70;;;;;;111261;1244;45227;-62
2023/06/22 01:46:24;;;;;;;;;30.00;27.33;27.70;53.70;;;;;;111316;1240;50041;-60
2023/06/22 01:48:51;;;;;;;;;31.00;29.33;27.70;53.90;;;;;;111178;1240;50076;-60
2023/06/22 01:51:18;;;;;;;;;26.67;26.00;27.70;53.70;;;;;;111257;1243;53933;-60
2023/06/22 01:53:47;;;;;;;;;28.00;26.00;27.70;53.70;;;;;;111262;1243;45000;-62
2023/06/22 01:56:17;;;;;;;;;29.25;27.00;27.70;53.80;;;;;;111360;1243;50370;-61
2023/06/22 01:59:10;;;;;;;;;29.67;27.67;27.70;53.80;;;;;;111358;1244;49765;-61
2023/06/22 02:02:06;;;;;;;;;29.75;27.50;27.70;53.80;;;;;;111331;1238;54113;-61
2023/06/22 02:04:55;;;;;;;;;29.25;28.50;27.70;53.80;;;;;;111201;1244;44865;-61
2023/06/22 02:07:23;;;;;;;;;28.67;28.00;27.70;53.80;;;;;;111235;1240;49344;-60
2023/06/22 02:09:52;;;;;;;;;28.00;27.00;27.70;53.80;;;;;;111239;1240;49355;-64
2023/06/22 02:12:23;;;;;;;;;29.25;29.25;27.70;53.80;;;;;;111390;1243;53864;-61
2023/06/22 02:14:51;;;;;;;;;27.75;27.25;27.70;53.90;;;;;;111251;1243;44856;-62
2023/06/22 02:17:19;;;;;;;;;30.50;28.50;27.70;53.80;;;;;;111257;1244;49362;-62
2023/06/22 02:19:46;;;;;;;;;26.50;25.00;27.70;53.90;;;;;;111236;1243;50167;-61
2023/06/22 02:22:13;;;;;;;;;29.00;27.00;27.70;53.90;;;;;;111242;1238;54140;-62
2023/06/22 02:24:40;;;;;;;;;27.75;26.50;27.70;53.90;;;;;;111313;1240;45907;-61
2023/06/22 02:27:08;;;;;;;;;30.50;29.00;27.60;53.90;;;;;;111343;1238;48799;-61
2023/06/22 02:29:34;;;;;;;;;28.75;27.75;27.60;54.10;;;;;;111238;1240;49200;-61
2023/06/22 02:32:02;;;;;;;;;29.00;27.00;27.60;54.00;;;;;;111321;1243;54031;-61
2023/06/22 02:34:29;;;;;;;;;28.75;26.25;27.60;54.00;;;;;;111283;1243;44242;-61
2023/06/22 02:36:56;;;;;;;;;28.50;26.00;27.60;54.00;;;;;;111311;1240;49817;-59
2023/06/22 02:39:24;;;;;;;;;31.50;29.75;27.60;54.00;;;;;;111173;1240;50346;-61
2023/06/22 02:41:53;;;;;;;;;30.00;29.50;27.60;54.00;;;;;;111263;1239;53546;-62
2023/06/22 02:44:20;;;;;;;;;33.75;30.00;27.60;54.30;;;;;;111267;1243;45057;-60
2023/06/22 02:46:47;;;;;;;;;28.25;26.75;27.60;54.60;;;;;;111210;1242;49253;-60
2023/06/22 02:49:14;;;;;;;;;30.75;29.25;27.60;54.10;;;;;;111247;1238;50320;-61
2023/06/22 02:51:47;;;;;;;;;28.00;26.50;27.60;54.10;;;;;;111391;1238;53536;-63
2023/06/22 02:54:14;;;;;;;;;29.25;27.25;27.60;54.30;;;;;;111362;1239;44566;-61
2023/06/22 02:56:43;;;;;;;;;26.00;25.25;27.60;54.10;;;;;;111246;1239;49179;-61
2023/06/22 02:59:11;;;;;;;;;29.50;29.00;27.60;54.20;;;;;;111205;1242;50615;-62
2023/06/22 03:01:39;;;;;;;;;29.25;28.50;27.60;54.10;;;;;;111201;1239;54739;-62
2023/06/22 03:04:07;;;;;;;;;30.25;28.75;27.60;54.20;;;;;;111250;1243;45105;-61
2023/06/22 03:06:35;;;;;;;;;30.00;28.00;27.50;54.10;;;;;;111200;1238;50418;-62
2023/06/22 03:09:04;;;;;;;;;28.75;26.00;27.50;54.10;;;;;;111234;1239;49274;-60
2023/06/22 03:11:32;;;;;;;;;27.75;26.25;27.50;54.10;;;;;;111303;1243;53807;-60
2023/06/22 03:14:01;;;;;;;;;27.00;24.50;27.50;54.30;;;;;;111242;1243;44386;-59
2023/06/22 03:16:29;;;;;;;;;29.00;28.25;27.50;54.10;;;;;;111315;1244;49576;-62
2023/06/22 03:18:56;;;;;;;;;29.25;27.75;27.50;54.20;;;;;;111272;1243;50495;-62
2023/06/22 03:21:23;;;;;;;;;29.75;27.50;27.50;54.40;;;;;;111286;1243;54146;-60
2023/06/22 03:23:50;;;;;;;;;28.33;27.00;27.50;54.20;;;;;;111227;1243;44233;-62
2023/06/22 03:26:18;;;;;;;;;31.00;29.25;27.50;54.20;;;;;;111243;1244;50753;-61
2023/06/22 03:28:46;;;;;;;;;29.50;28.75;27.50;54.20;;;;;;111269;1238;49649;-61
2023/06/22 03:31:13;;;;;;;;;30.00;28.75;27.50;54.20;;;;;;111251;1243;53803;-60
2023/06/22 03:33:40;;;;;;;;;30.75;29.00;27.50;54.20;;;;;;111175;1244;44346;-60
2023/06/22 03:36:08;;;;;;;;;26.00;25.00;27.50;54.20;;;;;;111248;1244;50508;-61
2023/06/22 03:38:36;;;;;;;;;28.00;27.50;27.50;54.20;;;;;;111251;1240;49444;-61
2023/06/22 03:41:03;;;;;;;;;29.25;28.25;27.50;54.40;;;;;;111292;1240;54514;-61
2023/06/22 03:43:30;;;;;;;;;28.50;27.25;27.50;54.20;;;;;;111347;1243;45475;-63
2023/06/22 03:45:57;;;;;;;;;30.25;28.00;27.50;54.20;;;;;;111253;1243;50410;-61
2023/06/22 03:48:24;;;;;;;;;29.50;28.25;27.40;54.20;;;;;;111180;1240;48909;-60
2023/06/22 03:50:50;;;;;;;;;28.50;27.25;27.40;54.10;;;;;;111266;1243;53737;-63
2023/06/22 03:53:18;;;;;;;;;26.75;25.75;27.40;54.10;;;;;;111255;1238;45128;-61
2023/06/22 03:55:50;;;;;;;;;27.25;27.00;27.40;54.10;;;;;;111236;1238;50810;-62
2023/06/22 03:58:18;;;;;;;;;28.00;27.25;27.40;54.20;;;;;;111234;1238;48982;-61
2023/06/22 04:00:47;;;;;;;;;24.50;24.25;27.40;54.10;;;;;;111247;1238;54561;-61
2023/06/22 04:03:15;;;;;;;;;26.00;24.75;27.40;54.10;;;;;;111316;1240;44172;-62
2023/06/22 04:05:42;;;;;;;;;26.00;26.00;27.40;54.10;;;;;;111315;1243;49759;-61
2023/06/22 04:08:09;;;;;;;;;27.00;26.00;27.40;54.30;;;;;;111487;1240;49824;-60
2023/06/22 04:10:36;;;;;;;;;29.25;27.00;27.40;54.30;;;;;;111284;1240;54912;-61
2023/06/22 04:13:03;;;;;;;;;29.75;27.75;27.40;54.10;;;;;;111221;1240;45647;-59
2023/06/22 04:15:30;;;;;;;;;27.50;27.25;27.40;54.30;;;;;;111271;1240;49971;-61
2023/06/22 04:17:57;;;;;;;;;28.75;27.25;27.40;54.20;;;;;;111255;1241;50367;-59
2023/06/22 04:20:27;;;;;;;;;28.00;26.75;27.40;54.10;;;;;;111221;1243;53733;-60
2023/06/22 04:22:54;;;;;;;;;27.00;26.00;27.40;54.40;;;;;;111222;1240;44988;-62
2023/06/22 04:25:22;;;;;;;;;29.33;28.00;27.40;54.30;;;;;;111405;1241;48975;-63
2023/06/22 04:27:49;;;;;;;;;28.50;27.25;27.40;54.20;;;;;;111389;1244;50507;-61
2023/06/22 04:30:16;;;;;;;;;26.00;24.50;27.40;54.10;;;;;;111305;1240;53443;-60
2023/06/22 04:32:44;;;;;;;;;25.25;24.00;27.40;54.10;;;;;;111267;1238;44312;-60
2023/06/22 04:35:11;;;;;;;;;28.25;27.00;27.40;54.10;;;;;;111321;1240;49936;-61
2023/06/22 04:37:39;;;;;;;;;30.25;27.50;27.40;54.20;;;;;;111278;1241;50049;-61
2023/06/22 04:40:07;;;;;;;;;26.00;25.50;27.40;54.10;;;;;;111399;1243;54149;-60
2023/06/22 04:42:36;;;;;;;;;23.50;22.25;27.40;54.30;;;;;;111148;1243;44525;-65
2023/06/22 04:45:04;;;;;;;;;28.00;26.50;27.40;54.20;;;;;;111326;1243;48999;-66
2023/06/22 04:47:31;;;;;;;;;29.75;28.25;27.40;54.20;;;;;;111288;1240;49946;-60
2023/06/22 04:49:58;;;;;;;;;26.00;23.50;27.40;54.20;;;;;;111356;1243;54400;-70
2023/06/22 04:52:25;;;;;;;;;25.00;22.00;27.40;54.10;;;;;;111271;1240;44155;-61
2023/06/22 04:54:55;;;;;;;;;28.25;27.00;27.40;54.20;;;;;;111243;1238;49710;-62
2023/06/22 04:57:30;;;;;;;;;28.00;26.75;27.40;54.20;;;;;;111228;1243;49555;-61
2023/06/22 05:00:11;;;;;;;;;25.50;23.75;27.40;54.20;;;;;;111198;1243;55183;-60
2023/06/22 05:02:39;;;;;;;;;29.25;28.25;27.40;54.30;;;;;;111313;1240;44223;-62
2023/06/22 05:05:07;;;;;;;;;28.33;25.67;27.40;54.30;;;;;;111361;1244;50413;-60
2023/06/22 05:07:34;;;;;;;;;28.50;26.75;27.40;54.30;;;;;;111216;1243;49297;-61
2023/06/22 05:10:02;;;;;;;;;26.00;25.00;27.40;53.90;;;;;;111197;1238;53362;-61
2023/06/22 05:12:30;;;;;;;;;25.67;24.67;27.40;54.40;;;;;;111257;1240;44724;-63
2023/06/22 05:14:57;;;;;;;;;27.75;25.75;27.40;54.20;;;;;;111199;1240;49779;-60
2023/06/22 05:17:24;;;;;;;;;28.75;27.25;27.40;54.30;;;;;;111228;1243;49577;-60
2023/06/22 05:19:52;;;;;;;;;27.75;26.25;27.40;54.20;;;;;;111271;1244;53450;-66
2023/06/22 05:22:19;;;;;;;;;31.33;29.33;27.40;54.40;;;;;;111326;1238;44638;-64
2023/06/22 05:24:46;;;;;;;;;34.00;31.00;27.40;55.50;;;;;;111368;1243;49832;-65
2023/06/22 05:27:14;;;;;;;;;35.50;32.25;27.40;56.20;;;;;;111384;1243;49976;-62
2023/06/22 05:29:42;;;;;;;;;37.67;32.67;27.40;57.20;;;;;;111200;1242;54075;-64
2023/06/22 05:32:09;;;;;;;;;36.00;32.00;27.40;57.20;;;;;;111208;1243;44538;-63
2023/06/22 05:34:36;;;;;;;;;43.67;34.33;27.40;57.80;;;;;;111281;1244;50125;-64
2023/06/22 05:37:04;;;;;;;;;41.00;34.00;27.50;57.90;;;;;;111310;1242;49092;-64
2023/06/22 05:39:31;;;;;;;;;41.25;35.25;27.50;57.90;;;;;;111281;1245;54105;-63
2023/06/22 05:41:58;;;;;;;;;41.67;35.67;27.60;58.00;;;;;;111273;1243;45226;-64
2023/06/22 05:44:24;;;;;;;;;41.00;34.25;27.60;58.40;;;;;;111285;1240;49674;-64
2023/06/22 05:46:51;;;;;;;;;41.67;35.33;27.60;58.90;;;;;;111254;1239;49581;-63
2023/06/22 05:49:18;;;;;;;;;42.33;35.33;27.60;58.80;;;;;;111258;1238;54222;-63
2023/06/22 05:51:45;;;;;;;;;42.25;35.00;27.60;58.70;;;;;;111207;1243;44692;-64
2023/06/22 05:54:13;;;;;;;;;41.00;34.75;27.60;59.10;;;;;;111210;1244;50043;-63
2023/06/22 05:56:40;;;;;;;;;42.75;36.25;27.60;59.40;;;;;;111228;1238;49796;-64
2023/06/22 05:59:07;;;;;;;;;43.50;34.75;27.50;59.30;;;;;;111198;1243;54037;-63
2023/06/22 06:01:35;;;;;;;;;42.25;35.00;27.50;59.30;;;;;;111295;1243;44700;-64
2023/06/22 06:04:09;;;;;;;;;39.00;33.75;27.50;59.40;;;;;;111225;1243;50095;-64
2023/06/22 06:06:36;;;;;;;;;42.00;35.25;27.50;59.30;;;;;;111245;1243;50295;-64
2023/06/22 06:09:04;;;;;;;;;41.25;35.00;27.50;59.20;;;;;;111273;1243;54285;-64
2023/06/22 06:11:31;;;;;;;;;42.25;35.25;27.50;59.30;;;;;;111277;1238;45710;-64
2023/06/22 06:13:58;;;;;;;;;38.67;33.33;27.50;59.30;;;;;;111332;1240;49496;-64
2023/06/22 06:16:25;;;;;;;;;40.25;34.25;27.50;59.40;;;;;;111569;1243;49708;-64
2023/06/22 06:18:54;;;;;;;;;44.00;36.00;27.50;59.20;;;;;;111204;1243;54211;-63
2023/06/22 06:21:22;;;;;;;;;40.00;34.00;27.50;59.10;;;;;;111196;1241;45628;-64
2023/06/22 06:23:48;;;;;;;;;41.00;34.00;27.50;59.30;;;;;;111190;1238;50358;-64
2023/06/22 06:26:16;;;;;;;;;40.25;34.25;27.50;59.30;;;;;;111215;1240;49267;-64
2023/06/22 06:28:44;;;;;;;;;38.75;33.50;27.50;59.30;;;;;;111262;1245;54299;-64
2023/06/22 06:31:12;;;;;;;;;39.25;33.00;27.50;59.30;;;;;;111213;1240;44820;-64
2023/06/22 06:33:39;;;;;;;;;41.67;35.33;27.50;59.20;;;;;;111221;1240;49068;-64
2023/06/22 06:36:08;;;;;;;;;41.00;35.25;27.50;59.20;;;;;;111190;1243;50414;-64
2023/06/22 06:38:35;;;;;;;;;42.25;35.50;27.50;59.10;;;;;;111162;1243;54510;-63
2023/06/22 06:41:02;;;;;;;;;40.25;34.75;27.50;59.10;;;;;;111192;1243;45621;-63
2023/06/22 06:43:28;;;;;;;;;36.25;32.75;27.50;59.10;;;;;;111231;1241;48972;-64
2023/06/22 06:45:55;;;;;;;;;40.00;33.75;27.50;59.10;;;;;;111263;1244;50536;-63
2023/06/22 06:48:22;;;;;;;;;39.50;32.50;27.50;59.10;;;;;;111091;1240;54027;-64
2023/06/22 06:50:50;;;;;;;;;39.50;34.00;27.50;59.00;;;;;;111203;1238;45856;-64
2023/06/22 06:53:16;;;;;;;;;38.50;34.50;27.50;59.00;;;;;;111293;1240;49760;-65
2023/06/22 06:55:45;;;;;;;;;36.00;32.00;27.50;59.00;;;;;;111247;1238;49960;-64
2023/06/22 06:58:13;;;;;;;;;41.75;35.25;27.50;59.00;;;;;;111222;1244;54542;-64
2023/06/22 07:00:40;;;;;;;;;37.00;33.00;27.50;59.00;;;;;;111312;1244;44616;-64
2023/06/22 07:03:07;;;;;;;;;36.50;32.00;27.50;58.90;;;;;;111279;1238;49235;-64
2023/06/22 07:05:35;;;;;;;;;41.00;34.50;27.50;58.80;;;;;;111305;1243;50200;-64
2023/06/22 07:08:02;;;;;;;;;36.75;33.25;27.50;58.80;;;;;;111222;1240;53545;-63
2023/06/22 07:10:29;;;;;;;;;39.25;32.75;27.50;58.60;;;;;;111271;1243;45014;-63
2023/06/22 07:12:57;;;;;;;;;31.25;29.50;27.50;58.50;;;;;;111252;1238;49983;-63
2023/06/22 07:15:23;;;;;;;;;40.00;33.25;27.50;58.50;;;;;;111251;1243;49841;-63
2023/06/22 07:17:50;;;;;;;;;34.50;32.00;27.50;58.50;;;;;;111234;1243;53653;-64
2023/06/22 07:20:19;;;;;;;;;34.75;32.00;27.50;58.40;;;;;;111233;1239;45737;-64
2023/06/22 07:22:46;;;;;;;;;35.25;31.25;27.50;58.40;;;;;;111253;1240;48984;-64
2023/06/22 07:25:17;;;;;;;;;35.50;31.75;27.60;58.50;;;;;;111296;1239;50095;-63
2023/06/22 07:27:47;;;;;;;;;36.00;32.25;27.60;58.50;;;;;;111262;1243;53166;-64
2023/06/22 07:30:14;;;;;;;;;36.25;32.25;27.60;58.80;;;;;;111282;1239;44437;-64
2023/06/22 07:32:41;;;;;;;;;34.25;31.25;27.60;58.60;;;;;;111260;1241;49233;-64
2023/06/22 07:35:09;;;;;;;;;37.00;32.50;27.60;58.60;;;;;;111270;1243;49754;-63
2023/06/22 07:37:36;;;;;;;;;32.33;30.33;27.60;58.60;;;;;;111216;1244;53995;-63
2023/06/22 07:40:06;;;;;;;;;36.50;32.25;27.60;58.60;;;;;;111249;1238;44607;-63
2023/06/22 07:42:33;;;;;;;;;33.00;31.00;27.60;58.70;;;;;;111258;1244;50598;-63
2023/06/22 07:45:00;;;;;;;;;34.33;31.67;27.60;58.60;;;;;;111232;1240;49199;-65
2023/06/22 07:47:28;;;;;;;;;35.50;32.00;27.60;58.60;;;;;;111222;1243;53898;-64
2023/06/22 07:50:01;;;;;;;;;33.75;31.50;27.70;59.10;;;;;;111326;1240;44206;-64
2023/06/22 07:52:28;;;;;;;;;34.00;31.25;27.70;58.70;;;;;;111212;1240;49860;-64
2023/06/22 07:54:55;;;;;;;;;37.75;32.25;27.70;58.70;;;;;;111247;1243;50146;-64
2023/06/22 07:57:22;;;;;;;;;35.50;32.00;27.70;58.60;;;;;;111209;1241;53633;-64
2023/06/22 07:59:49;;;;;;;;;35.67;32.00;27.70;58.50;;;;;;111273;1238;44240;-63
2023/06/22 08:02:16;;;;;;;;;39.00;32.67;27.70;58.60;;;;;;111272;1243;49028;-63
2023/06/22 08:04:43;;;;;;;;;42.75;35.00;27.70;58.50;;;;;;111147;1243;49583;-64
2023/06/22 08:07:10;;;;;;;;;37.00;32.50;27.70;58.50;;;;;;111243;1243;53525;-64
2023/06/22 08:09:37;;;;;;;;;39.50;33.75;27.70;58.00;;;;;;111225;1238;44129;-69
2023/06/22 08:12:05;;;;;;;;;37.25;32.50;27.80;58.60;;;;;;111205;1241;49677;-66
2023/06/22 08:14:32;;;;;;;;;38.25;34.00;27.80;58.70;;;;;;111064;1238;48895;-65
2023/06/22 08:16:59;;;;;;;;;37.00;32.25;27.80;58.40;;;;;;111348;1238;53535;-65
2023/06/22 08:19:26;;;;;;;;;42.25;34.25;27.90;58.40;;;;;;111192;1243;45135;-64
2023/06/22 08:21:53;;;;;;;;;34.25;31.25;27.90;58.60;;;;;;112191;1243;49516;-65
2023/06/22 08:24:20;;;;;;;;;37.25;32.50;27.90;58.80;;;;;;111263;1238;50029;-64
2023/06/22 08:26:47;;;;;;;;;35.67;31.33;28.00;58.80;;;;;;111209;1243;53806;-62
2023/06/22 08:29:14;;;;;;;;;38.00;33.00;28.00;58.60;;;;;;111216;1239;44682;-62
2023/06/22 08:31:41;;;;;;;;;40.25;33.00;28.00;58.70;;;;;;111274;1244;48842;-63
2023/06/22 08:34:08;;;;;;;;;35.25;32.00;28.00;58.20;;;;;;111247;1243;49473;-65
2023/06/22 08:36:44;;;;;;;;;34.25;31.25;28.00;58.60;;;;;;111277;1238;53458;-64
2023/06/22 08:39:11;;;;;;;;;38.00;34.00;28.10;58.60;;;;;;111208;1244;44326;-65
2023/06/22 08:41:38;;;;;;;;;35.67;32.33;28.10;58.80;;;;;;111335;1244;50201;-63
2023/06/22 08:44:05;;;;;;;;;36.25;31.50;28.10;58.50;;;;;;111331;1238;49703;-66
2023/06/22 08:46:33;;;;;;;;;36.50;31.75;28.10;58.60;;;;;;111295;1238;53665;-65
2023/06/22 08:49:00;;;;;;;;;39.50;34.25;28.10;58.70;;;;;;111238;1238;45850;-63
2023/06/22 08:51:28;;;;;;;;;36.00;33.00;28.10;58.90;;;;;;111313;1238;50520;-61
2023/06/22 08:53:55;;;;;;;;;32.67;31.00;28.10;59.00;;;;;;111190;1243;49347;-63
2023/06/22 08:56:22;;;;;;;;;36.75;32.25;28.10;58.80;;;;;;111601;1240;53469;-62
2023/06/22 08:58:49;;;;;;;;;34.75;30.50;28.10;59.10;;;;;;111232;1241;45941;-61
2023/06/22 09:01:19;;;;;;;;;33.00;30.50;28.20;58.90;;;;;;111249;1243;49526;-63
2023/06/22 09:03:54;;;;;;;;;28.25;27.75;28.20;58.50;;;;;;111289;1240;49125;-74
2023/06/22 09:06:21;;;;;;;;;33.00;29.00;28.20;59.10;;;;;;111635;1238;53229;-65
2023/06/22 09:08:49;;;;;;;;;75.67;59.00;28.20;59.50;;;;;;111194;1243;45132;-63
2023/06/22 09:11:16;;;;;;;;;77.50;52.75;28.20;58.70;;;;;;111206;1244;51050;-63
2023/06/22 09:13:43;;;;;;;;;85.75;66.50;28.30;58.60;;;;;;111149;1240;49887;-63
2023/06/22 09:16:11;;;;;;;;;76.00;58.25;28.30;59.40;;;;;;111215;1243;54728;-63
2023/06/22 09:18:38;;;;;;;;;84.00;63.00;28.30;59.00;;;;;;111274;1238;44962;-63
2023/06/22 09:21:05;;;;;;;;;76.00;58.00;28.30;59.60;;;;;;111267;1240;49033;-62
2023/06/22 09:23:32;;;;;;;;;72.75;52.25;28.40;60.10;;;;;;111256;1243;49359;-62
2023/06/22 09:25:59;;;;;;;;;68.25;50.00;28.40;59.80;;;;;;111268;1240;54616;-63
2023/06/22 09:28:26;;;;;;;;;64.25;46.75;28.40;59.50;;;;;;111258;1243;44277;-62
2023/06/22 09:30:57;;;;;;;;;61.67;47.33;28.40;59.90;;;;;;111214;1243;49851;-62
2023/06/22 09:33:26;;;;;;;;;62.67;46.00;28.40;59.30;;;;;;111208;1243;49341;-62
2023/06/22 09:35:53;;;;;;;;;56.75;44.25;28.40;59.20;;;;;;111061;1241;53589;-62
2023/06/22 09:38:20;;;;;;;;;64.33;45.00;28.50;59.30;;;;;;111227;1243;44665;-61
2023/06/22 09:40:47;;;;;;;;;63.25;45.75;28.50;58.90;;;;;;111325;1240;49325;-63
2023/06/22 09:43:14;;;;;;;;;60.25;43.25;28.60;58.80;;;;;;111351;1244;49609;-62
2023/06/22 09:45:41;;;;;;;;;61.67;45.00;28.70;58.80;;;;;;111280;1244;53263;-62
2023/06/22 09:48:09;;;;;;;;;63.33;47.00;28.70;58.60;;;;;;111221;1243;44723;-62
2023/06/22 09:50:37;;;;;;;;;58.00;43.33;28.70;58.70;;;;;;111260;1244;49125;-63
2023/06/22 09:53:04;;;;;;;;;60.75;45.25;28.80;58.40;;;;;;111235;1241;49432;-61
2023/06/22 09:55:31;;;;;;;;;60.00;44.00;28.80;58.30;;;;;;111243;1243;53519;-62
2023/06/22 09:57:58;;;;;;;;;61.00;43.00;28.80;58.30;;;;;;111281;1243;45118;-61
2023/06/22 10:00:26;;;;;;;;;60.75;44.00;28.90;58.10;;;;;;111250;1243;49928;-62
2023/06/22 10:02:53;;;;;;;;;59.50;44.50;28.90;58.00;;;;;;111249;1243;50179;-61
2023/06/22 10:05:20;;;;;;;;;54.75;42.25;28.90;57.90;;;;;;111313;1243;54382;-62
2023/06/22 10:07:47;;;;;;;;;60.00;45.25;29.00;57.90;;;;;;111302;1241;44579;-61
2023/06/22 10:10:15;;;;;;;;;60.00;44.33;29.00;57.80;;;;;;111250;1238;49599;-62
2023/06/22 10:12:45;;;;;;;;;52.00;40.00;29.10;57.90;;;;;;111263;1243;49262;-62
2023/06/22 10:15:12;;;;;;;;;55.67;42.00;29.10;57.70;;;;;;111345;1238;53415;-65
2023/06/22 10:17:39;;;;;;;;;57.75;42.50;29.10;57.60;;;;;;111314;1238;44368;-62
2023/06/22 10:20:11;;;;;;;;;56.33;42.00;29.10;57.40;;;;;;111307;1243;49468;-61
2023/06/22 10:22:40;;;;;;;;;54.67;42.67;29.10;57.30;;;;;;111281;1240;49487;-61
2023/06/22 10:25:08;;;;;;;;;56.00;42.75;29.10;57.90;;;;;;111322;1243;54440;-62
2023/06/22 10:27:35;;;;;;;;;56.50;41.25;29.20;57.30;;;;;;111236;1238;45112;-61
2023/06/22 10:30:02;;;;;;;;;53.67;41.33;29.30;57.20;;;;;;111201;1246;49850;-62
2023/06/22 10:32:29;;;;;;;;;51.50;40.25;29.30;57.10;;;;;;111240;1243;50666;-62
2023/06/22 10:34:56;;;;;;;;;53.33;41.67;29.30;57.10;;;;;;111254;1243;54014;-61
2023/06/22 10:37:23;;;;;;;;;52.75;39.50;29.30;57.20;;;;;;111238;1240;44942;-62
2023/06/22 10:39:50;;;;;;;;;51.00;39.00;29.30;57.00;;;;;;111176;1245;49812;-63
2023/06/22 10:42:17;;;;;;;;;48.00;38.75;29.30;57.10;;;;;;111331;1238;49055;-61
2023/06/22 10:44:44;;;;;;;;;49.50;38.50;29.40;56.90;;;;;;111296;1243;54832;-61
2023/06/22 10:47:11;;;;;;;;;51.00;40.50;29.40;56.80;;;;;;111306;1243;45344;-62
2023/06/22 10:49:39;;;;;;;;;53.50;40.25;29.40;56.80;;;;;;111289;1243;49845;-61
2023/06/22 10:52:07;;;;;;;;;50.50;38.25;29.40;56.70;;;;;;111251;1240;49070;-63
2023/06/22 10:54:35;;;;;;;;;54.50;40.00;29.40;56.70;;;;;;111260;1244;53576;-61
2023/06/22 10:57:02;;;;;;;;;48.75;39.00;29.50;56.70;;;;;;111291;1243;44352;-62
2023/06/22 10:59:29;;;;;;;;;48.75;37.75;29.50;56.70;;;;;;111211;1239;49044;-63
2023/06/22 11:01:57;;;;;;;;;48.75;37.00;29.50;56.60;;;;;;111246;1243;49942;-63
2023/06/22 11:04:25;;;;;;;;;48.00;37.00;29.50;56.80;;;;;;111308;1241;53925;-62
2023/06/22 11:06:52;;;;;;;;;51.50;40.00;29.50;56.60;;;;;;111242;1240;44312;-63
2023/06/22 11:09:20;;;;;;;;;48.50;38.00;29.50;56.50;;;;;;111224;1243;49790;-63
2023/06/22 11:11:47;;;;;;;;;49.00;35.00;29.50;56.40;;;;;;111242;1240;50304;-63
2023/06/22 11:14:14;;;;;;;;;48.67;37.00;29.60;56.50;;;;;;111340;1241;53879;-63
2023/06/22 11:16:41;;;;;;;;;47.25;36.75;29.60;56.80;;;;;;111314;1244;44659;-63
2023/06/22 11:19:08;;;;;;;;;48.75;36.25;29.60;56.40;;;;;;111281;1243;49421;-63
2023/06/22 11:21:35;;;;;;;;;46.33;38.00;29.60;56.30;;;;;;111227;1240;49970;-62
2023/06/22 11:24:02;;;;;;;;;45.00;36.00;29.60;56.30;;;;;;111290;1238;53361;-63
2023/06/22 11:26:31;;;;;;;;;49.00;36.50;29.60;56.30;;;;;;111270;1238;44726;-64
2023/06/22 11:28:59;;;;;;;;;44.33;36.00;29.60;56.20;;;;;;111353;1238;49826;-62
2023/06/22 11:31:25;;;;;;;;;50.00;36.75;29.60;56.20;;;;;;111369;1243;49424;-63
2023/06/22 11:33:53;;;;;;;;;48.75;36.00;29.60;56.20;;;;;;111253;1244;53967;-62
2023/06/22 11:36:21;;;;;;;;;47.75;37.50;29.60;56.30;;;;;;111272;1239;45953;-65
2023/06/22 11:38:48;;;;;;;;;46.33;36.00;29.60;56.10;;;;;;111136;1244;49809;-62
2023/06/22 11:41:15;;;;;;;;;44.75;34.00;29.70;56.10;;;;;;111389;1238;49739;-62
2023/06/22 11:43:42;;;;;;;;;44.00;35.00;29.70;55.60;;;;;;111212;1243;53535;-62
2023/06/22 11:46:10;;;;;;;;;48.33;34.33;29.70;56.30;;;;;;111375;1239;44756;-62
2023/06/22 11:48:37;;;;;;;;;40.67;32.33;29.70;56.10;;;;;;111078;1244;124312;-62
2023/06/22 11:51:06;;;;;;;;;44.75;36.00;29.70;56.00;;;;;;111191;1239;49601;-63
2023/06/22 11:53:34;;;;;;;;;40.25;32.00;29.70;56.00;;;;;;111223;1243;55061;-62
2023/06/22 11:56:01;;;;;;;;;41.00;35.00;29.70;55.90;;;;;;111243;1240;44486;-62
2023/06/22 11:58:28;;;;;;;;;48.00;36.00;29.70;56.30;;;;;;111262;1244;49902;-64
2023/06/22 12:00:55;;;;;;;;;45.33;35.67;29.80;55.90;;;;;;111320;1241;50592;-61
2023/06/22 12:03:22;;;;;;;;;42.75;34.50;29.80;55.90;;;;;;111269;1240;54207;-61
2023/06/22 12:05:52;;;;;;;;;46.00;34.00;29.80;55.90;;;;;;111307;1239;44421;-62
2023/06/22 12:08:19;;;;;;;;;45.00;35.33;29.80;56.10;;;;;;111331;1243;48942;-60
2023/06/22 12:10:45;;;;;;;;;41.00;32.00;29.80;55.90;;;;;;111340;1241;49007;-61
2023/06/22 12:13:13;;;;;;;;;45.00;35.00;29.80;56.30;;;;;;111378;1240;54290;-63
2023/06/22 12:15:39;;;;;;;;;41.00;33.50;29.80;55.80;;;;;;111350;1243;45085;-62
2023/06/22 12:18:06;;;;;;;;;43.75;33.50;29.80;55.80;;;;;;111275;1244;49521;-62
2023/06/22 12:20:34;;;;;;;;;43.00;34.00;29.80;55.70;;;;;;111326;1240;49621;-62
2023/06/22 12:23:01;;;;;;;;;38.00;32.33;29.80;55.70;;;;;;111354;1238;53154;-62